Amsterdam, MO (64723)

10:15 PM CDT on July 28, 2016 (GMT -0500)
KMOAMSTE2 | | Change Station

Elev 906 ft 38.36 °N, 94.61 °W | Updated 29 seconds ago

Scattered Clouds
Scattered Clouds
71.4 °F
Feels Like 77 °F
N
2.5
Wind Variable Wind from NNW
Gusts 2.5 mph

Today
High -- | Low -- °F
--% Chance of Precip.
Yesterday
High -- | Low -- °F
Precip. -- in
Pressure 29.95 in
Visibility 10.0 miles
Clouds Scattered Clouds 6500 ft
Heat Index 77 °F
Dew Point 53 °F
Humidity 53%
Rainfall in
Snow Depth Not available.
6:17 AM 8:31 PM
Waning Crescent, 26% visible
METAR KOJC 290253Z AUTO 01004KT 10SM SCT065 27/19 A2998 RMK AO2 LTG DSNT S AND SW SLP141 T02670189 53020
Pressure 29.95 in
Visibility 10.0 miles
Clouds Scattered Clouds 6500 ft
Heat Index 77 °F
Dew Point 53 °F
Humidity 53%
Rainfall in
Snow Depth Not available.
6:17 AM 8:31 PM
Waning Crescent, 26% visible
METAR KOJC 290253Z AUTO 01004KT 10SM SCT065 27/19 A2998 RMK AO2 LTG DSNT S AND SW SLP141 T02670189 53020

10-Day Weather Forecast

Almanac

Astronomy

Jul. 28, 2016 Rise Set
Actual Time
Civil Twilight
Nautical Twilight
Astronomical Twilight
Moon
Length of Visible Light
Length of Day
Tomorrow will be .
, % of the Moon is Illuminated

Today's Extremes

State Highs State Lows

Community

WunderPhotos

Upload Photos

1,928,282 photos uploaded!

WunderBlog® & News

Nearby

Air Quality

  Air Quality AQ Index Pollutant
Not available.

Snow Depth

Station Depth Elevation

Earthquake Activity

City Distance Mag. Time & Date
Minimum magnitude displayed is 2.5.

Coastal Water Temperatures

Place Temperature

Stations

Nearby Weather Stations

Station Location Temp. Windchill Dew Point Humidity Wind Precip. Elev Updated Type
                   

Watches & Warnings

There are currently no watches in effect.